sensor_id;sensor_type;location;lat;lon;timestamp;pressure;altitude;pressure_sealevel;temperature;humidity
70434;BME280;57876;47.792;12.960;2024-03-22T00:00:35;97500.50;;;18.56;44.11
70434;BME280;57876;47.792;12.960;2024-03-22T00:02:59;97494.22;;;18.55;43.90
70434;BME280;57876;47.792;12.960;2024-03-22T00:05:24;97493.44;;;18.55;43.92
70434;BME280;57876;47.792;12.960;2024-03-22T00:07:48;97501.16;;;18.53;44.11
70434;BME280;57876;47.792;12.960;2024-03-22T00:10:13;97499.22;;;18.53;43.96
70434;BME280;57876;47.792;12.960;2024-03-22T00:12:38;97501.16;;;18.53;43.88
70434;BME280;57876;47.792;12.960;2024-03-22T00:15:02;97505.53;;;18.54;43.95
70434;BME280;57876;47.792;12.960;2024-03-22T00:17:26;97493.72;;;18.53;43.90
70434;BME280;57876;47.792;12.960;2024-03-22T00:19:51;97500.84;;;18.54;44.10
70434;BME280;57876;47.792;12.960;2024-03-22T00:22:15;97495.66;;;18.53;44.06
70434;BME280;57876;47.792;12.960;2024-03-22T00:24:40;97494.88;;;18.52;43.99
70434;BME280;57876;47.792;12.960;2024-03-22T00:27:04;97492.28;;;18.56;43.94
70434;BME280;57876;47.792;12.960;2024-03-22T00:29:29;97494.22;;;18.55;43.84
70434;BME280;57876;47.792;12.960;2024-03-22T00:31:53;97495.84;;;18.56;43.84
70434;BME280;57876;47.792;12.960;2024-03-22T00:34:20;97491.97;;;18.57;43.92
70434;BME280;57876;47.792;12.960;2024-03-22T00:36:44;97494.72;;;18.57;44.11
70434;BME280;57876;47.792;12.960;2024-03-22T00:39:09;97499.41;;;18.57;43.93
70434;BME280;57876;47.792;12.960;2024-03-22T00:41:33;97497.47;;;18.57;44.02
70434;BME280;57876;47.792;12.960;2024-03-22T00:43:58;97489.56;;;18.56;44.34
70434;BME280;57876;47.792;12.960;2024-03-22T00:46:22;97495.84;;;18.56;44.05
70434;BME280;57876;47.792;12.960;2024-03-22T00:48:47;97490.34;;;18.56;44.02
70434;BME280;57876;47.792;12.960;2024-03-22T00:51:11;97487.16;;;18.54;43.99
70434;BME280;57876;47.792;12.960;2024-03-22T00:53:35;97490.34;;;18.56;43.97
70434;BME280;57876;47.792;12.960;2024-03-22T00:56:00;97494.22;;;18.55;43.93
70434;BME280;57876;47.792;12.960;2024-03-22T00:58:26;97488.75;;;18.55;43.83
70434;BME280;57876;47.792;12.960;2024-03-22T01:00:50;97491.00;;;18.53;44.02
70434;BME280;57876;47.792;12.960;2024-03-22T01:03:15;97485.50;;;18.53;43.95
70434;BME280;57876;47.792;12.960;2024-03-22T01:05:39;97481.66;;;18.54;43.85
70434;BME280;57876;47.792;12.960;2024-03-22T01:08:06;97489.41;;;18.52;44.03
70434;BME280;57876;47.792;12.960;2024-03-22T01:10:30;97484.22;;;18.51;44.06
70434;BME280;57876;47.792;12.960;2024-03-22T01:12:55;97478.75;;;18.51;44.06
70434;BME280;57876;47.792;12.960;2024-03-22T01:15:19;97471.34;;;18.51;43.91
70434;BME280;57876;47.792;12.960;2024-03-22T01:17:43;97471.66;;;18.49;43.89
70434;BME280;57876;47.792;12.960;2024-03-22T01:20:08;97462.66;;;18.49;44.13
70434;BME280;57876;47.792;12.960;2024-03-22T01:22:33;97466.50;;;18.48;44.06
70434;BME280;57876;47.792;12.960;2024-03-22T01:24:57;97467.31;;;18.48;44.00
70434;BME280;57876;47.792;12.960;2024-03-22T01:27:22;97462.16;;;18.47;44.11
70434;BME280;57876;47.792;12.960;2024-03-22T01:29:46;97464.88;;;18.47;44.23
70434;BME280;57876;47.792;12.960;2024-03-22T01:32:11;97458.59;;;18.46;44.05
70434;BME280;57876;47.792;12.960;2024-03-22T01:34:35;97453.44;;;18.45;44.09
70434;BME280;57876;47.792;12.960;2024-03-22T01:37:00;97457.81;;;18.46;43.72
70434;BME280;57876;47.792;12.960;2024-03-22T01:39:24;97461.34;;;18.46;44.08
70434;BME280;57876;47.792;12.960;2024-03-22T01:41:50;97455.06;;;18.46;43.89
70434;BME280;57876;47.792;12.960;2024-03-22T01:44:14;97448.44;;;18.47;44.02
70434;BME280;57876;47.792;12.960;2024-03-22T01:46:40;97449.25;;;18.47;44.10
70434;BME280;57876;47.792;12.960;2024-03-22T01:49:05;97441.38;;;18.46;44.08
70434;BME280;57876;47.792;12.960;2024-03-22T01:51:29;97440.72;;;18.49;43.94
70434;BME280;57876;47.792;12.960;2024-03-22T01:53:54;97436.84;;;18.50;43.90
70434;BME280;57876;47.792;12.960;2024-03-22T01:56:19;97441.22;;;18.51;43.85
70434;BME280;57876;47.792;12.960;2024-03-22T01:58:44;97433.00;;;18.51;44.08
70434;BME280;57876;47.792;12.960;2024-03-22T02:01:08;97427.53;;;18.51;44.27
70434;BME280;57876;47.792;12.960;2024-03-22T02:03:33;97427.84;;;18.49;43.94
70434;BME280;57876;47.792;12.960;2024-03-22T02:05:57;97425.09;;;18.49;44.04
70434;BME280;57876;47.792;12.960;2024-03-22T02:08:21;97418.81;;;18.49;43.88
70434;BME280;57876;47.792;12.960;2024-03-22T02:10:46;97420.41;;;18.50;43.55
70434;BME280;57876;47.792;12.960;2024-03-22T02:13:11;97420.41;;;18.50;43.99
70434;BME280;57876;47.792;12.960;2024-03-22T02:15:35;97419.63;;;18.49;43.93
70434;BME280;57876;47.792;12.960;2024-03-22T02:17:59;97415.28;;;18.48;44.03
70434;BME280;57876;47.792;12.960;2024-03-22T02:20:24;97420.75;;;18.48;43.90
70434;BME280;57876;47.792;12.960;2024-03-22T02:22:48;97417.19;;;18.48;44.07
70434;BME280;57876;47.792;12.960;2024-03-22T02:25:12;97418.81;;;18.49;44.13
70434;BME280;57876;47.792;12.960;2024-03-22T02:27:38;97416.38;;;18.47;44.02
70434;BME280;57876;47.792;12.960;2024-03-22T02:30:03;97418.31;;;18.47;43.99
70434;BME280;57876;47.792;12.960;2024-03-22T02:32:27;97412.84;;;18.47;43.99
70434;BME280;57876;47.792;12.960;2024-03-22T02:34:52;97416.72;;;18.46;44.09
70434;BME280;57876;47.792;12.960;2024-03-22T02:37:16;97413.16;;;18.45;44.08
70434;BME280;57876;47.792;12.960;2024-03-22T02:39:40;97410.41;;;18.45;44.02
70434;BME280;57876;47.792;12.960;2024-03-22T02:42:05;97399.00;;;18.43;44.30
70434;BME280;57876;47.792;12.960;2024-03-22T02:44:29;97399.00;;;18.43;44.05
70434;BME280;57876;47.792;12.960;2024-03-22T02:46:54;97407.22;;;18.43;44.22
70434;BME280;57876;47.792;12.960;2024-03-22T02:49:18;97400.09;;;18.42;43.89
70434;BME280;57876;47.792;12.960;2024-03-22T02:51:43;97403.63;;;18.43;44.13
70434;BME280;57876;47.792;12.960;2024-03-22T02:54:07;97404.78;;;18.42;43.89
70434;BME280;57876;47.792;12.960;2024-03-22T02:56:31;97405.91;;;18.41;43.90
70434;BME280;57876;47.792;12.960;2024-03-22T02:58:56;97395.75;;;18.41;44.01
70434;BME280;57876;47.792;12.960;2024-03-22T03:01:20;97396.91;;;18.40;43.98
70434;BME280;57876;47.792;12.960;2024-03-22T03:03:45;97395.75;;;18.41;44.34
70434;BME280;57876;47.792;12.960;2024-03-22T03:06:09;97396.56;;;18.42;43.98
70434;BME280;57876;47.792;12.960;2024-03-22T03:08:34;97386.41;;;18.42;44.11
70434;BME280;57876;47.792;12.960;2024-03-22T03:10:58;97388.03;;;18.43;43.67
70434;BME280;57876;47.792;12.960;2024-03-22T03:13:23;97384.97;;;18.45;44.12
70434;BME280;57876;47.792;12.960;2024-03-22T03:15:47;97381.41;;;18.44;44.06
70434;BME280;57876;47.792;12.960;2024-03-22T03:18:13;97384.16;;;18.44;44.13
70434;BME280;57876;47.792;12.960;2024-03-22T03:20:37;97382.22;;;18.45;43.91
70434;BME280;57876;47.792;12.960;2024-03-22T03:23:01;97382.22;;;18.45;43.97
70434;BME280;57876;47.792;12.960;2024-03-22T03:25:26;97379.47;;;18.45;44.03
70434;BME280;57876;47.792;12.960;2024-03-22T03:27:50;97390.63;;;18.48;43.90
70434;BME280;57876;47.792;12.960;2024-03-22T03:30:15;97381.56;;;18.48;44.04
70434;BME280;57876;47.792;12.960;2024-03-22T03:32:39;97385.16;;;18.48;43.97
70434;BME280;57876;47.792;12.960;2024-03-22T03:35:04;97378.84;;;18.48;44.06
70434;BME280;57876;47.792;12.960;2024-03-22T03:37:29;97377.53;;;18.45;44.00
70434;BME280;57876;47.792;12.960;2024-03-22T03:39:53;97375.28;;;18.47;43.90
70434;BME280;57876;47.792;12.960;2024-03-22T03:42:18;97374.81;;;18.45;44.09
70434;BME280;57876;47.792;12.960;2024-03-22T03:44:42;97381.13;;;18.46;44.07
70434;BME280;57876;47.792;12.960;2024-03-22T03:47:07;97380.28;;;18.45;43.99
70434;BME280;57876;47.792;12.960;2024-03-22T03:49:31;97382.72;;;18.47;44.09
70434;BME280;57876;47.792;12.960;2024-03-22T03:51:56;97373.22;;;18.44;43.83
70434;BME280;57876;47.792;12.960;2024-03-22T03:54:20;97380.13;;;18.42;44.05
70434;BME280;57876;47.792;12.960;2024-03-22T03:56:44;97382.22;;;18.45;44.10
70434;BME280;57876;47.792;12.960;2024-03-22T03:59:09;97370.78;;;18.43;44.08
70434;BME280;57876;47.792;12.960;2024-03-22T04:01:33;97381.41;;;18.44;44.05
70434;BME280;57876;47.792;12.960;2024-03-22T04:03:57;97387.22;;;18.43;44.14
70434;BME280;57876;47.792;12.960;2024-03-22T04:06:22;97374.66;;;18.42;44.15
70434;BME280;57876;47.792;12.960;2024-03-22T04:08:46;97372.72;;;18.42;44.14
70434;BME280;57876;47.792;12.960;2024-03-22T04:11:10;97370.78;;;18.43;44.23
70434;BME280;57876;47.792;12.960;2024-03-22T04:13:35;97369.19;;;18.42;44.15
70434;BME280;57876;47.792;12.960;2024-03-22T04:16:00;97363.38;;;18.43;44.21
70434;BME280;57876;47.792;12.960;2024-03-22T04:18:24;97363.06;;;18.45;44.03
70434;BME280;57876;47.792;12.960;2024-03-22T04:20:58;97370.16;;;18.46;44.01
70434;BME280;57876;47.792;12.960;2024-03-22T04:23:24;97358.84;;;18.47;44.02
70434;BME280;57876;47.792;12.960;2024-03-22T04:25:54;97365.97;;;18.48;43.90
70434;BME280;57876;47.792;12.960;2024-03-22T04:28:18;97357.41;;;18.50;43.96
70434;BME280;57876;47.792;12.960;2024-03-22T04:30:43;97365.81;;;18.54;44.12
70434;BME280;57876;47.792;12.960;2024-03-22T04:33:07;97361.94;;;18.55;43.99
70434;BME280;57876;47.792;12.960;2024-03-22T04:35:32;97363.22;;;18.57;43.93
70434;BME280;57876;47.792;12.960;2024-03-22T04:37:56;97353.88;;;18.58;43.83
70434;BME280;57876;47.792;12.960;2024-03-22T04:40:21;97362.56;;;18.60;43.85
70434;BME280;57876;47.792;12.960;2024-03-22T04:42:45;97361.44;;;18.61;43.73
70434;BME280;57876;47.792;12.960;2024-03-22T04:45:09;97353.69;;;18.63;44.10
70434;BME280;57876;47.792;12.960;2024-03-22T04:47:34;97362.72;;;18.64;43.79
70434;BME280;57876;47.792;12.960;2024-03-22T04:49:58;97353.41;;;18.65;44.01
70434;BME280;57876;47.792;12.960;2024-03-22T04:52:22;97359.66;;;18.65;44.03
70434;BME280;57876;47.792;12.960;2024-03-22T04:54:47;97359.66;;;18.65;43.82
70434;BME280;57876;47.792;12.960;2024-03-22T04:57:11;97363.22;;;18.66;44.05
70434;BME280;57876;47.792;12.960;2024-03-22T04:59:36;97356.63;;;18.67;43.77
70434;BME280;57876;47.792;12.960;2024-03-22T05:02:00;97352.25;;;18.66;44.21
70434;BME280;57876;47.792;12.960;2024-03-22T05:04:24;97358.53;;;18.66;44.22
70434;BME280;57876;47.792;12.960;2024-03-22T05:06:49;97357.25;;;18.64;43.88
70434;BME280;57876;47.792;12.960;2024-03-22T05:09:13;97348.22;;;18.63;43.92
70434;BME280;57876;47.792;12.960;2024-03-22T05:11:37;97343.88;;;18.62;43.96
70434;BME280;57876;47.792;12.960;2024-03-22T05:14:02;97355.34;;;18.64;43.98
70434;BME280;57876;47.792;12.960;2024-03-22T05:16:27;97340.81;;;18.64;44.05
70434;BME280;57876;47.792;12.960;2024-03-22T05:18:51;97338.41;;;18.62;44.00
70434;BME280;57876;47.792;12.960;2024-03-22T05:21:16;97339.69;;;18.65;43.88
70434;BME280;57876;47.792;12.960;2024-03-22T05:23:43;97344.84;;;18.66;43.93
70434;BME280;57876;47.792;12.960;2024-03-22T05:26:10;97337.44;;;18.67;43.96
70434;BME280;57876;47.792;12.960;2024-03-22T05:28:34;97325.66;;;18.66;44.06
70434;BME280;57876;47.792;12.960;2024-03-22T05:30:59;97333.56;;;18.68;44.01
70434;BME280;57876;47.792;12.960;2024-03-22T05:33:23;97337.59;;;18.70;44.09
70434;BME280;57876;47.792;12.960;2024-03-22T05:35:47;97333.72;;;18.71;44.10
70434;BME280;57876;47.792;12.960;2024-03-22T05:38:12;97336.94;;;18.74;43.89
70434;BME280;57876;47.792;12.960;2024-03-22T05:40:36;97333.09;;;18.75;43.99
70434;BME280;57876;47.792;12.960;2024-03-22T05:43:02;97323.75;;;18.76;43.92
70434;BME280;57876;47.792;12.960;2024-03-22T05:45:30;97321.81;;;18.76;43.79
70434;BME280;57876;47.792;12.960;2024-03-22T05:47:57;97315.19;;;18.77;43.89
70434;BME280;57876;47.792;12.960;2024-03-22T05:50:24;97313.28;;;18.78;44.07
70434;BME280;57876;47.792;12.960;2024-03-22T05:52:48;97307.78;;;18.78;43.97
70434;BME280;57876;47.792;12.960;2024-03-22T05:55:15;97307.78;;;18.78;43.85
70434;BME280;57876;47.792;12.960;2024-03-22T05:57:39;97301.81;;;18.76;43.89
70434;BME280;57876;47.792;12.960;2024-03-22T06:00:05;97297.47;;;18.75;43.80
70434;BME280;57876;47.792;12.960;2024-03-22T06:02:31;97293.09;;;18.74;43.75
70434;BME280;57876;47.792;12.960;2024-03-22T06:04:55;97289.25;;;18.75;43.91
70434;BME280;57876;47.792;12.960;2024-03-22T06:07:19;97294.72;;;18.75;43.91
70434;BME280;57876;47.792;12.960;2024-03-22T06:09:44;97282.13;;;18.74;43.99
70434;BME280;57876;47.792;12.960;2024-03-22T06:12:12;97287.59;;;18.74;44.04
70434;BME280;57876;47.792;12.960;2024-03-22T06:14:37;97282.13;;;18.74;43.91
70434;BME280;57876;47.792;12.960;2024-03-22T06:17:03;97285.19;;;18.72;43.97
70434;BME280;57876;47.792;12.960;2024-03-22T06:19:27;97291.50;;;18.73;43.97
70434;BME280;57876;47.792;12.960;2024-03-22T06:21:52;97285.19;;;18.72;43.90
70434;BME280;57876;47.792;12.960;2024-03-22T06:24:16;97286.00;;;18.73;43.85
70434;BME280;57876;47.792;12.960;2024-03-22T06:26:41;97288.41;;;18.74;43.99
70434;BME280;57876;47.792;12.960;2024-03-22T06:29:05;97282.94;;;18.74;43.79
70434;BME280;57876;47.792;12.960;2024-03-22T06:31:29;97282.94;;;18.74;43.83
70434;BME280;57876;47.792;12.960;2024-03-22T06:33:54;97286.19;;;18.76;43.87
70434;BME280;57876;47.792;12.960;2024-03-22T06:36:18;97286.97;;;18.77;43.91
70434;BME280;57876;47.792;12.960;2024-03-22T06:38:43;97294.91;;;18.78;43.86
70434;BME280;57876;47.792;12.960;2024-03-22T06:41:07;97287.47;;;18.79;44.00
70434;BME280;57876;47.792;12.960;2024-03-22T06:43:31;97286.31;;;18.80;43.99
70434;BME280;57876;47.792;12.960;2024-03-22T06:45:56;97285.53;;;18.79;43.93
70434;BME280;57876;47.792;12.960;2024-03-22T06:48:20;97289.06;;;18.80;44.24
70434;BME280;57876;47.792;12.960;2024-03-22T06:50:44;97287.47;;;18.79;43.97
70434;BME280;57876;47.792;12.960;2024-03-22T06:53:09;97286.69;;;18.78;43.94
70434;BME280;57876;47.792;12.960;2024-03-22T06:55:36;97286.97;;;18.77;43.89
70434;BME280;57876;47.792;12.960;2024-03-22T06:58:00;97296.84;;;18.78;43.79
70434;BME280;57876;47.792;12.960;2024-03-22T07:00:25;97303.44;;;18.77;43.70
70434;BME280;57876;47.792;12.960;2024-03-22T07:02:49;97297.94;;;18.77;44.16
70434;BME280;57876;47.792;12.960;2024-03-22T07:05:14;97289.25;;;18.75;43.88
70434;BME280;57876;47.792;12.960;2024-03-22T07:07:38;97297.47;;;18.75;43.87
70434;BME280;57876;47.792;12.960;2024-03-22T07:10:03;97295.84;;;18.74;43.88
70434;BME280;57876;47.792;12.960;2024-03-22T07:12:29;97290.66;;;18.72;43.94
70434;BME280;57876;47.792;12.960;2024-03-22T07:14:55;97290.66;;;18.72;43.94
70434;BME280;57876;47.792;12.960;2024-03-22T07:17:20;97290.66;;;18.72;43.94
70434;BME280;57876;47.792;12.960;2024-03-22T07:19:48;97286.63;;;18.69;43.90
70434;BME280;57876;47.792;12.960;2024-03-22T07:22:12;97291.00;;;18.70;43.79
70434;BME280;57876;47.792;12.960;2024-03-22T07:24:37;97285.84;;;18.69;43.96
70434;BME280;57876;47.792;12.960;2024-03-22T07:27:01;97290.66;;;18.72;44.07
70434;BME280;57876;47.792;12.960;2024-03-22T07:29:25;97289.88;;;18.71;43.97
70434;BME280;57876;47.792;12.960;2024-03-22T07:31:50;97295.34;;;18.71;43.65
70434;BME280;57876;47.792;12.960;2024-03-22T07:34:14;97286.81;;;18.73;43.84
70434;BME280;57876;47.792;12.960;2024-03-22T07:36:39;97294.41;;;18.76;43.87
70434;BME280;57876;47.792;12.960;2024-03-22T07:39:03;97283.44;;;18.76;43.98
70434;BME280;57876;47.792;12.960;2024-03-22T07:41:30;97291.34;;;18.78;43.85
70434;BME280;57876;47.792;12.960;2024-03-22T07:43:56;97288.63;;;18.78;43.81
70434;BME280;57876;47.792;12.960;2024-03-22T07:46:21;97286.69;;;18.78;43.85
70434;BME280;57876;47.792;12.960;2024-03-22T07:48:45;97289.91;;;18.80;43.61
70434;BME280;57876;47.792;12.960;2024-03-22T07:51:09;97291.81;;;18.80;43.99
70434;BME280;57876;47.792;12.960;2024-03-22T07:53:34;97291.81;;;18.80;43.80
70434;BME280;57876;47.792;12.960;2024-03-22T07:55:58;97284.72;;;18.79;43.70
70434;BME280;57876;47.792;12.960;2024-03-22T07:58:24;97280.84;;;18.80;44.13
70434;BME280;57876;47.792;12.960;2024-03-22T08:00:48;97276.50;;;18.79;43.66
70434;BME280;57876;47.792;12.960;2024-03-22T08:03:16;97268.28;;;18.79;43.69
70434;BME280;57876;47.792;12.960;2024-03-22T08:05:40;97266.69;;;18.78;43.96
70434;BME280;57876;47.792;12.960;2024-03-22T08:08:05;97264.25;;;18.76;43.77
70434;BME280;57876;47.792;12.960;2024-03-22T08:10:29;97266.22;;;18.76;44.12
70434;BME280;57876;47.792;12.960;2024-03-22T08:12:54;97260.72;;;18.76;43.82
70434;BME280;57876;47.792;12.960;2024-03-22T08:15:18;97257.97;;;18.76;44.07
70434;BME280;57876;47.792;12.960;2024-03-22T08:17:42;97260.22;;;18.74;43.81
70434;BME280;57876;47.792;12.960;2024-03-22T08:20:07;97253.13;;;18.73;43.80
70434;BME280;57876;47.792;12.960;2024-03-22T08:22:31;97248.75;;;18.71;43.78
70434;BME280;57876;47.792;12.960;2024-03-22T08:24:56;97247.16;;;18.70;43.71
70434;BME280;57876;47.792;12.960;2024-03-22T08:27:20;97245.22;;;18.71;43.85
70434;BME280;57876;47.792;12.960;2024-03-22T08:29:45;97249.91;;;18.70;43.87
70434;BME280;57876;47.792;12.960;2024-03-22T08:32:09;97244.44;;;18.70;43.82
70434;BME280;57876;47.792;12.960;2024-03-22T08:34:33;97239.25;;;18.69;43.90
70434;BME280;57876;47.792;12.960;2024-03-22T08:36:58;97242.34;;;18.67;44.00
70434;BME280;57876;47.792;12.960;2024-03-22T08:39:22;97239.59;;;18.67;43.89
70434;BME280;57876;47.792;12.960;2024-03-22T08:41:49;97225.09;;;18.67;43.75
70434;BME280;57876;47.792;12.960;2024-03-22T08:44:13;97234.13;;;18.67;44.08
70434;BME280;57876;47.792;12.960;2024-03-22T08:46:37;97231.84;;;18.69;44.06
70434;BME280;57876;47.792;12.960;2024-03-22T08:49:02;97224.09;;;18.71;43.98
70434;BME280;57876;47.792;12.960;2024-03-22T08:51:27;97219.41;;;18.72;44.00
70434;BME280;57876;47.792;12.960;2024-03-22T08:53:51;97218.47;;;18.77;43.79
70434;BME280;57876;47.792;12.960;2024-03-22T08:56:15;97216.53;;;18.77;43.77
70434;BME280;57876;47.792;12.960;2024-03-22T08:58:40;97222.19;;;18.81;43.62
70434;BME280;57876;47.792;12.960;2024-03-22T09:01:04;97206.84;;;18.80;43.86
70434;BME280;57876;47.792;12.960;2024-03-22T09:03:29;97208.81;;;18.79;43.71
70434;BME280;57876;47.792;12.960;2024-03-22T09:05:54;97213.16;;;18.80;43.70
70434;BME280;57876;47.792;12.960;2024-03-22T09:08:20;97208.00;;;18.79;43.80
70434;BME280;57876;47.792;12.960;2024-03-22T09:10:45;97205.75;;;18.81;43.65
70434;BME280;57876;47.792;12.960;2024-03-22T09:13:10;97195.91;;;18.80;43.79
70434;BME280;57876;47.792;12.960;2024-03-22T09:15:36;97203.00;;;18.81;43.87
70434;BME280;57876;47.792;12.960;2024-03-22T09:18:01;97197.03;;;18.79;43.78
70434;BME280;57876;47.792;12.960;2024-03-22T09:20:26;97187.66;;;18.80;43.83
70434;BME280;57876;47.792;12.960;2024-03-22T09:22:50;97187.22;;;18.78;43.81
70434;BME280;57876;47.792;12.960;2024-03-22T09:25:15;97185.94;;;18.75;43.90
70434;BME280;57876;47.792;12.960;2024-03-22T09:27:39;97182.84;;;18.77;43.86
70434;BME280;57876;47.792;12.960;2024-03-22T09:30:04;97186.75;;;18.76;44.06
70434;BME280;57876;47.792;12.960;2024-03-22T09:32:30;97176.06;;;18.74;43.84
70434;BME280;57876;47.792;12.960;2024-03-22T09:34:54;97179.94;;;18.73;43.63
70434;BME280;57876;47.792;12.960;2024-03-22T09:37:19;97171.72;;;18.73;43.72
70434;BME280;57876;47.792;12.960;2024-03-22T09:39:43;97158.69;;;18.70;43.63
70434;BME280;57876;47.792;12.960;2024-03-22T09:42:13;97160.59;;;18.69;43.78
70434;BME280;57876;47.792;12.960;2024-03-22T09:44:40;97155.13;;;18.69;43.87
70434;BME280;57876;47.792;12.960;2024-03-22T09:47:09;97155.47;;;18.68;44.03
70434;BME280;57876;47.792;12.960;2024-03-22T09:49:33;97142.91;;;18.67;43.84
70434;BME280;57876;47.792;12.960;2024-03-22T09:51:58;97149.50;;;18.66;43.82
70434;BME280;57876;47.792;12.960;2024-03-22T09:54:26;97151.44;;;18.65;44.13
70434;BME280;57876;47.792;12.960;2024-03-22T09:56:50;97147.09;;;18.64;44.13
70434;BME280;57876;47.792;12.960;2024-03-22T09:59:16;97158.06;;;18.64;44.05
70434;BME280;57876;47.792;12.960;2024-03-22T10:01:41;97148.22;;;18.63;43.82
70434;BME280;57876;47.792;12.960;2024-03-22T10:04:07;97136.78;;;18.61;43.85
70434;BME280;57876;47.792;12.960;2024-03-22T10:06:33;97142.59;;;18.60;43.86
70434;BME280;57876;47.792;12.960;2024-03-22T10:08:59;97134.38;;;18.60;43.77
70434;BME280;57876;47.792;12.960;2024-03-22T10:11:27;97126.97;;;18.60;43.92
70434;BME280;57876;47.792;12.960;2024-03-22T10:13:52;97124.22;;;18.60;43.84
70434;BME280;57876;47.792;12.960;2024-03-22T10:16:16;97122.63;;;18.59;43.84
70434;BME280;57876;47.792;12.960;2024-03-22T10:18:40;97125.03;;;18.61;43.75
70434;BME280;57876;47.792;12.960;2024-03-22T10:21:05;97123.56;;;18.63;43.89
70434;BME280;57876;47.792;12.960;2024-03-22T10:23:30;97125.19;;;18.64;43.80
70434;BME280;57876;47.792;12.960;2024-03-22T10:25:59;97114.88;;;18.61;43.85
70434;BME280;57876;47.792;12.960;2024-03-22T10:28:24;97121.31;;;18.65;43.89
70434;BME280;57876;47.792;12.960;2024-03-22T10:30:50;97115.03;;;18.65;43.86
70434;BME280;57876;47.792;12.960;2024-03-22T10:33:15;97112.28;;;18.65;43.93
70434;BME280;57876;47.792;12.960;2024-03-22T10:35:41;97108.75;;;18.64;43.79
70434;BME280;57876;47.792;12.960;2024-03-22T10:38:06;97108.75;;;18.64;43.88
70434;BME280;57876;47.792;12.960;2024-03-22T10:40:31;97108.75;;;18.64;43.88
70434;BME280;57876;47.792;12.960;2024-03-22T10:42:56;97107.59;;;18.65;43.86
70434;BME280;57876;47.792;12.960;2024-03-22T10:45:21;97098.91;;;18.63;43.66
70434;BME280;57876;47.792;12.960;2024-03-22T10:47:50;97104.38;;;18.63;43.92
70434;BME280;57876;47.792;12.960;2024-03-22T10:50:18;97095.69;;;18.61;43.81
70434;BME280;57876;47.792;12.960;2024-03-22T10:53:19;97089.09;;;18.62;43.72
70434;BME280;57876;47.792;12.960;2024-03-22T10:55:47;97080.72;;;18.59;44.12
70434;BME280;57876;47.792;12.960;2024-03-22T10:58:21;97080.41;;;18.60;44.14
70434;BME280;57876;47.792;12.960;2024-03-22T11:00:46;97082.66;;;18.58;43.87
70434;BME280;57876;47.792;12.960;2024-03-22T11:03:12;97069.31;;;18.57;43.81
70434;BME280;57876;47.792;12.960;2024-03-22T11:05:47;97069.75;;;18.59;43.90
70434;BME280;57876;47.792;12.960;2024-03-22T11:08:11;97064.63;;;18.57;43.92
70434;BME280;57876;47.792;12.960;2024-03-22T11:10:37;97066.88;;;18.55;43.97
70434;BME280;57876;47.792;12.960;2024-03-22T11:13:02;97061.88;;;18.57;43.92
70434;BME280;57876;47.792;12.960;2024-03-22T11:15:28;97054.34;;;18.54;43.79
70434;BME280;57876;47.792;12.960;2024-03-22T11:17:52;97049.66;;;18.55;43.89
70434;BME280;57876;47.792;12.960;2024-03-22T11:20:17;97056.59;;;18.52;43.75
70434;BME280;57876;47.792;12.960;2024-03-22T11:22:42;97054.66;;;18.53;43.88
70434;BME280;57876;47.792;12.960;2024-03-22T11:25:06;97056.59;;;18.52;43.78
70434;BME280;57876;47.792;12.960;2024-03-22T11:27:31;97051.44;;;18.51;43.87
70434;BME280;57876;47.792;12.960;2024-03-22T11:29:55;97054.16;;;18.51;43.99
70434;BME280;57876;47.792;12.960;2024-03-22T11:32:20;97040.81;;;18.49;43.89
70434;BME280;57876;47.792;12.960;2024-03-22T11:34:45;97042.75;;;18.48;43.86
70434;BME280;57876;47.792;12.960;2024-03-22T11:37:10;97029.88;;;18.49;43.97
70434;BME280;57876;47.792;12.960;2024-03-22T11:39:35;97026.16;;;18.45;44.10
70434;BME280;57876;47.792;12.960;2024-03-22T11:41:59;97026.66;;;18.47;43.87
70434;BME280;57876;47.792;12.960;2024-03-22T11:44:24;97029.69;;;18.45;43.94
70434;BME280;57876;47.792;12.960;2024-03-22T11:46:50;97019.09;;;18.44;43.98
70434;BME280;57876;47.792;12.960;2024-03-22T11:49:15;97021.03;;;18.43;43.92
70434;BME280;57876;47.792;12.960;2024-03-22T11:51:39;97013.47;;;18.40;43.83
70434;BME280;57876;47.792;12.960;2024-03-22T11:54:04;97014.28;;;18.41;43.86
70434;BME280;57876;47.792;12.960;2024-03-22T11:56:28;97009.59;;;18.41;43.99
70434;BME280;57876;47.792;12.960;2024-03-22T11:58:58;97006.88;;;18.41;43.81
70434;BME280;57876;47.792;12.960;2024-03-22T12:01:23;96998.66;;;18.41;43.91
70434;BME280;57876;47.792;12.960;2024-03-22T12:03:47;96997.38;;;18.39;43.87
70434;BME280;57876;47.792;12.960;2024-03-22T12:06:12;96993.16;;;18.41;43.84
70434;BME280;57876;47.792;12.960;2024-03-22T12:08:38;96991.22;;;18.42;43.90
70434;BME280;57876;47.792;12.960;2024-03-22T12:11:05;96984.16;;;18.41;44.03
70434;BME280;57876;47.792;12.960;2024-03-22T12:13:30;96981.06;;;18.42;43.80
70434;BME280;57876;47.792;12.960;2024-03-22T12:15:55;96977.22;;;18.43;43.88
70434;BME280;57876;47.792;12.960;2024-03-22T12:18:19;96964.31;;;18.44;43.90
70434;BME280;57876;47.792;12.960;2024-03-22T12:20:44;96962.38;;;18.44;43.46
70434;BME280;57876;47.792;12.960;2024-03-22T12:23:08;96962.06;;;18.46;43.94
70434;BME280;57876;47.792;12.960;2024-03-22T12:25:32;96955.44;;;18.47;43.63
70434;BME280;57876;47.792;12.960;2024-03-22T12:27:57;96956.22;;;18.47;43.53
70434;BME280;57876;47.792;12.960;2024-03-22T12:30:21;96948.00;;;18.47;43.73
70434;BME280;57876;47.792;12.960;2024-03-22T12:32:46;96939.00;;;18.47;44.07
70434;BME280;57876;47.792;12.960;2024-03-22T12:35:10;96936.25;;;18.47;43.93
70434;BME280;57876;47.792;12.960;2024-03-22T12:37:35;96933.53;;;18.47;43.56